Time;durP1;ratioP1;P1;durP2;ratioP2;P2;SDS_P1;SDS_P2;PMS_P1;PMS_P2;Temp;Humidity;BMP_temperature;BMP_pressure;BME280_temperature;BME280_humidity;BME280_pressure;Samples;Min_cycle;Max_cycle;Signal;HPM_P1;HPM_P2
2023/07/07 06:40:37;;;;;;;14.77;5.15;;;;;;;29.83;31.29;100775.28;4332488;27;20693;-81
2023/07/07 06:43:04;;;;;;;11.80;5.00;;;;;;;32.55;27.68;100773.19;4249051;28;21692;-77
2023/07/07 06:45:31;;;;;;;15.35;5.10;;;;;;;32.85;27.13;100776.97;4266594;28;20229;-73
2023/07/07 06:47:58;;;;;;;13.98;4.88;;;;;;;29.86;30.02;100768.31;4258443;28;20243;-72
2023/07/07 06:50:28;;;;;;;14.20;4.40;;;;;;;30.79;28.39;100772.44;4241434;28;20263;-73
2023/07/07 06:52:54;;;;;;;9.80;4.30;;;;;;;31.45;28.36;100770.88;4278275;28;20313;-75
2023/07/07 06:55:21;;;;;;;12.70;4.65;;;;;;;31.04;29.14;100768.03;4265773;28;20278;-73
2023/07/07 06:57:48;;;;;;;12.30;4.65;;;;;;;32.03;27.92;100780.06;4242372;28;20231;-72
2023/07/07 07:00:15;;;;;;;10.90;4.47;;;;;;;31.50;27.97;100772.81;4229405;28;20242;-71
2023/07/07 07:02:43;;;;;;;9.85;4.32;;;;;;;31.23;28.31;100773.94;4244462;28;20281;-71
2023/07/07 07:05:09;;;;;;;7.47;3.83;;;;;;;30.12;29.76;100763.75;4244087;28;20254;-74
2023/07/07 07:07:36;;;;;;;8.45;3.38;;;;;;;30.08;30.06;100761.78;4247124;28;20225;-74
2023/07/07 07:10:04;;;;;;;7.57;3.60;;;;;;;30.82;28.95;100763.47;4238921;28;22041;-76
2023/07/07 07:12:31;;;;;;;11.35;4.85;;;;;;;32.49;26.50;100773.47;4242251;28;20250;-72
2023/07/07 07:14:57;;;;;;;9.18;4.30;;;;;;;30.71;28.76;100770.19;4218149;28;21121;-73
2023/07/07 07:17:24;;;;;;;15.60;4.30;;;;;;;32.16;27.45;100781.44;4238642;28;20234;-75
2023/07/07 07:19:52;;;;;;;5.28;2.92;;;;;;;31.60;26.35;100774.78;4206958;28;20308;-78
2023/07/07 07:22:20;;;;;;;5.82;2.25;;;;;;;32.51;25.99;100779.66;4235624;28;21009;-78
2023/07/07 07:24:46;;;;;;;4.38;2.85;;;;;;;33.69;24.38;100775.25;4242272;28;20558;-72
2023/07/07 07:27:13;;;;;;;7.88;2.47;;;;;;;33.97;23.55;100779.22;4234822;28;21266;-74
2023/07/07 07:29:42;;;;;;;4.63;2.35;;;;;;;32.92;24.50;100789.84;4241403;28;20917;-73
2023/07/07 07:32:09;;;;;;;7.03;2.35;;;;;;;29.69;28.24;100788.00;4237450;28;22924;-75
2023/07/07 07:34:36;;;;;;;4.10;2.15;;;;;;;28.83;30.05;100786.88;4235115;28;20545;-78
2023/07/07 07:37:03;;;;;;;5.13;2.40;;;;;;;29.02;29.12;100787.38;4229810;28;20236;-74
2023/07/07 07:39:31;;;;;;;4.85;2.25;;;;;;;28.76;29.20;100787.94;4233745;28;20599;-69
2023/07/07 07:41:57;;;;;;;8.48;2.38;;;;;;;29.05;29.40;100793.25;4235620;28;20231;-72
2023/07/07 07:44:25;;;;;;;3.00;2.20;;;;;;;29.57;28.55;100793.78;4219444;28;20340;-74
2023/07/07 07:46:55;;;;;;;5.30;2.30;;;;;;;29.35;28.60;100791.06;4238867;28;20243;-74
2023/07/07 07:49:23;;;;;;;5.28;2.30;;;;;;;28.02;30.75;100791.91;4223592;28;20238;-77
2023/07/07 07:51:50;;;;;;;5.07;2.00;;;;;;;28.84;29.93;100788.56;4225763;28;20241;-75
2023/07/07 07:54:18;;;;;;;4.75;2.25;;;;;;;28.18;30.43;100797.75;4202683;28;21168;-73
2023/07/07 07:56:46;;;;;;;6.28;2.20;;;;;;;28.65;29.70;100790.81;4216990;28;21123;-47
2023/07/07 07:59:13;;;;;;;7.50;2.30;;;;;;;29.12;29.58;100790.25;4220465;28;20313;-72
2023/07/07 08:01:39;;;;;;;5.85;2.40;;;;;;;28.91;29.28;100794.78;4213916;28;20598;-70
2023/07/07 08:04:06;;;;;;;5.22;2.00;;;;;;;28.61;29.45;100793.28;4224402;28;20237;-71
2023/07/07 08:06:33;;;;;;;7.13;2.20;;;;;;;28.24;29.66;100794.78;4216215;28;20851;-71
2023/07/07 08:09:00;;;;;;;6.38;2.30;;;;;;;28.09;30.18;100783.44;4208708;28;20226;-70
2023/07/07 08:11:47;;;;;;;5.00;2.10;;;;;;;28.20;29.42;100792.75;4211454;28;25550;-71
2023/07/07 08:14:20;;;;;;;5.00;1.90;;;;;;;29.02;28.92;100788.22;4211803;28;20283;-70
2023/07/07 08:16:48;;;;;;;8.27;2.45;;;;;;;28.41;29.41;100796.66;4211603;28;21306;-70
2023/07/07 08:19:15;;;;;;;6.00;2.13;;;;;;;28.67;29.17;100795.03;4222452;28;22486;-69
2023/07/07 08:21:46;;;;;;;4.10;2.25;;;;;;;29.18;29.04;100788.38;4242785;28;20247;-69
2023/07/07 08:24:13;;;;;;;3.47;1.80;;;;;;;28.52;28.93;100794.84;4219610;28;20242;-68
2023/07/07 08:26:40;;;;;;;4.75;1.98;;;;;;;28.41;29.69;100791.94;4238938;28;20254;-70
2023/07/07 08:29:07;;;;;;;4.38;2.28;;;;;;;28.48;29.54;100791.72;4207226;28;20244;-70
2023/07/07 08:31:33;;;;;;;5.00;2.03;;;;;;;28.47;30.04;100801.22;4227965;28;20258;-70
2023/07/07 08:34:00;;;;;;;3.22;2.03;;;;;;;27.82;30.12;100800.78;4213467;28;20516;-67
2023/07/07 08:36:28;;;;;;;5.45;2.35;;;;;;;27.99;30.11;100801.63;4233710;28;20237;-68
2023/07/07 08:39:00;;;;;;;4.43;2.13;;;;;;;27.50;29.94;100805.03;4241296;28;20239;-69
2023/07/07 08:41:27;;;;;;;4.55;2.25;;;;;;;26.71;30.97;100801.00;4228566;28;20242;-69
2023/07/07 08:43:54;;;;;;;4.38;1.88;;;;;;;26.85;31.33;100803.50;4214035;28;20342;-67
2023/07/07 08:46:47;;;;;;;10.45;2.10;;;;;;;26.80;31.78;100795.91;4249368;28;23469;-66
2023/07/07 08:49:17;;;;;;;6.22;2.10;;;;;;;27.31;30.42;100797.97;4242599;28;22406;-68
2023/07/07 08:51:51;;;;;;;7.70;2.00;;;;;;;27.11;30.72;100804.84;4215753;28;20235;-68
2023/07/07 08:54:26;;;;;;;5.72;1.92;;;;;;;26.53;31.16;100801.16;4211049;28;21211;-67
2023/07/07 08:57:02;;;;;;;3.53;1.92;;;;;;;27.15;30.02;100805.19;4244398;28;20401;-67
2023/07/07 08:59:47;;;;;;;5.20;2.25;;;;;;;26.83;30.20;100803.75;4232876;28;20239;-68
2023/07/07 09:02:21;;;;;;;6.93;2.13;;;;;;;26.94;30.75;100813.13;4222946;28;20239;-68
2023/07/07 09:05:14;;;;;;;7.72;2.25;;;;;;;27.27;30.53;100813.47;4209838;28;20532;-68
2023/07/07 09:08:03;;;;;;;3.85;1.63;;;;;;;27.34;31.02;100823.31;4236464;28;20343;-67
2023/07/07 09:10:35;;;;;;;6.05;2.00;;;;;;;26.80;31.25;100814.53;4228453;28;20254;-67
2023/07/07 09:13:20;;;;;;;6.27;1.90;;;;;;;25.98;32.24;100819.91;4211938;28;20315;-68
2023/07/07 09:15:59;;;;;;;3.15;1.50;;;;;;;25.84;31.87;100821.19;4232277;28;20228;-68
2023/07/07 09:18:29;;;;;;;2.90;1.55;;;;;;;25.06;33.81;100821.13;4226508;28;20232;-68
2023/07/07 09:20:59;;;;;;;3.65;1.80;;;;;;;25.44;32.73;100814.41;4189960;28;20382;-69
2023/07/07 09:23:31;;;;;;;7.25;2.22;;;;;;;25.39;32.48;100812.34;4220923;28;21161;-67
2023/07/07 09:26:03;;;;;;;5.95;1.85;;;;;;;24.83;33.93;100812.50;4224590;28;20311;-69
2023/07/07 09:28:32;;;;;;;4.72;1.67;;;;;;;24.51;34.28;100812.63;4214367;28;21015;-68
2023/07/07 09:31:27;;;;;;;6.68;2.15;;;;;;;25.20;33.84;100810.69;4209918;28;21018;-69
2023/07/07 09:33:54;;;;;;;4.65;1.80;;;;;;;25.77;33.43;100808.31;4232686;28;20299;-68
2023/07/07 09:36:32;;;;;;;5.97;1.42;;;;;;;26.33;32.15;100815.44;4245209;28;20233;-67
2023/07/07 09:39:24;;;;;;;8.82;1.80;;;;;;;26.41;32.50;100810.38;4231371;28;20238;-68
2023/07/07 09:42:02;;;;;;;2.80;1.63;;;;;;;25.93;32.03;100808.69;4220351;28;21165;-70
2023/07/07 09:45:01;;;;;;;4.07;1.70;;;;;;;25.85;32.12;100811.81;4209506;28;20325;-66
2023/07/07 09:47:54;;;;;;;5.47;1.80;;;;;;;25.95;31.79;100804.56;4235383;28;20236;-67
2023/07/07 09:50:31;;;;;;;5.53;2.30;;;;;;;26.36;31.09;100815.78;4217835;28;20251;-66
2023/07/07 09:53:05;;;;;;;7.80;1.43;;;;;;;25.69;31.08;100810.59;4233046;28;20237;-68
2023/07/07 09:55:47;;;;;;;5.22;1.83;;;;;;;25.93;30.35;100800.34;4229720;28;23662;-68
2023/07/07 09:58:29;;;;;;;5.20;1.73;;;;;;;26.24;29.35;100801.97;4213597;28;20244;-68
2023/07/07 10:00:58;;;;;;;3.88;1.55;;;;;;;26.60;29.91;100801.84;4225616;28;21661;-68
2023/07/07 10:03:36;;;;;;;2.88;1.52;;;;;;;27.29;29.69;100808.50;4233035;28;20250;-68
2023/07/07 10:06:17;;;;;;;3.42;1.65;;;;;;;27.04;29.97;100812.50;4224028;28;20331;-67
2023/07/07 10:08:43;;;;;;;4.53;1.58;;;;;;;27.08;30.16;100810.88;4207806;28;20607;-68
2023/07/07 10:11:23;;;;;;;2.83;1.50;;;;;;;26.37;31.01;100802.78;4212998;28;20228;-68
2023/07/07 10:14:14;;;;;;;3.20;1.40;;;;;;;25.99;32.25;100815.19;4224676;28;20714;-68
2023/07/07 10:17:00;;;;;;;5.38;1.88;;;;;;;25.25;33.53;100799.75;4250437;28;20229;-68
2023/07/07 10:19:26;;;;;;;6.00;1.60;;;;;;;25.61;31.99;100811.78;4218603;28;20240;-69
2023/07/07 10:21:53;;;;;;;3.83;1.70;;;;;;;25.93;32.34;100817.00;4228209;28;20265;-69
2023/07/07 10:24:21;;;;;;;4.93;1.67;;;;;;;26.02;31.16;100810.00;4239754;28;22645;-69
2023/07/07 10:26:47;;;;;;;3.47;1.53;;;;;;;26.34;30.15;100806.88;4235111;28;20235;-68
2023/07/07 10:29:22;;;;;;;3.33;1.65;;;;;;;26.64;30.68;100811.41;4243659;28;20730;-68
2023/07/07 10:31:50;;;;;;;2.78;1.50;;;;;;;26.49;29.35;100805.53;4221268;28;20992;-68
2023/07/07 10:34:30;;;;;;;2.53;1.40;;;;;;;26.47;29.90;100802.13;4221029;28;20231;-69
2023/07/07 10:36:58;;;;;;;3.63;1.40;;;;;;;27.13;28.30;100793.47;4236513;28;20618;-70
2023/07/07 10:39:29;;;;;;;5.30;1.80;;;;;;;26.88;30.01;100806.63;4212465;28;20391;-69
2023/07/07 10:41:56;;;;;;;2.90;1.43;;;;;;;26.54;30.82;100808.41;4225105;28;20432;-69
2023/07/07 10:44:24;;;;;;;3.38;1.52;;;;;;;26.24;31.32;100813.06;4210978;28;20670;-70
2023/07/07 10:46:51;;;;;;;5.32;1.83;;;;;;;26.47;31.65;100813.25;4210672;28;20312;-68
2023/07/07 10:49:24;;;;;;;5.73;1.90;;;;;;;26.72;29.89;100810.16;4210885;28;20241;-68
2023/07/07 10:52:11;;;;;;;5.03;1.60;;;;;;;25.70;30.45;100806.75;4210583;28;22959;-72
2023/07/07 10:54:45;;;;;;;3.70;1.57;;;;;;;26.18;30.46;100799.28;4222096;28;20237;-69
2023/07/07 10:57:34;;;;;;;4.32;1.50;;;;;;;26.53;28.37;100812.25;4219263;28;21662;-70
2023/07/07 11:00:38;;;;;;;2.23;1.40;;;;;;;26.35;28.86;100805.81;4223401;28;20240;-71
2023/07/07 11:03:30;;;;;;;1.85;1.20;;;;;;;26.49;29.69;100811.06;4232798;28;20227;-68
2023/07/07 11:06:08;;;;;;;4.23;1.50;;;;;;;26.82;28.11;100810.41;4227591;28;20262;-70
2023/07/07 11:08:41;;;;;;;3.35;1.30;;;;;;;27.04;28.40;100813.31;4230241;28;20243;-70
2023/07/07 11:11:22;;;;;;;4.63;1.30;;;;;;;26.52;29.19;100816.13;4209482;28;20233;-69
2023/07/07 11:13:58;;;;;;;3.90;1.60;;;;;;;25.94;30.29;100813.13;4227468;28;20227;-67
2023/07/07 11:17:07;;;;;;;3.00;1.33;;;;;;;26.17;30.33;100812.31;4218710;28;20225;-68
2023/07/07 11:19:53;;;;;;;4.57;1.48;;;;;;;25.79;30.45;100810.84;4207598;28;20241;-69
2023/07/07 11:22:30;;;;;;;3.97;1.48;;;;;;;26.33;29.73;100810.75;4223962;28;20291;-68
2023/07/07 11:25:05;;;;;;;1.80;1.20;;;;;;;26.17;28.90;100803.97;4235279;28;20693;-69
2023/07/07 11:28:08;;;;;;;3.05;1.20;;;;;;;25.89;29.43;100797.22;4252818;28;22135;-68
2023/07/07 11:30:52;;;;;;;4.73;1.40;;;;;;;26.32;28.00;100791.56;4233658;28;20272;-69
2023/07/07 11:34:14;;;;;;;3.30;1.40;;;;;;;25.95;26.95;100798.19;4224789;28;26829;-68
2023/07/07 11:37:20;;;;;;;5.38;1.30;;;;;;;26.18;27.35;100797.34;4228471;28;21920;-69
2023/07/07 11:40:41;;;;;;;1.88;1.13;;;;;;;26.35;26.80;100791.06;4227356;28;22698;-68
2023/07/07 11:43:13;;;;;;;5.90;1.67;;;;;;;26.87;27.92;100793.81;4232761;28;20262;-71
2023/07/07 11:46:04;;;;;;;3.37;1.70;;;;;;;26.55;28.33;100790.66;4249187;28;20439;-69
2023/07/07 11:48:47;;;;;;;4.95;1.90;;;;;;;26.14;29.37;100785.06;4267774;28;20297;-69
2023/07/07 11:51:33;;;;;;;3.80;1.27;;;;;;;26.09;29.56;100782.19;4282287;28;20233;-73
2023/07/07 11:54:06;;;;;;;2.30;1.30;;;;;;;26.79;28.45;100776.72;4237955;28;20227;-67
2023/07/07 11:56:58;;;;;;;4.72;1.70;;;;;;;27.13;28.94;100782.34;4281773;28;20840;-71
2023/07/07 11:59:45;;;;;;;7.60;1.30;;;;;;;27.27;27.65;100788.44;4281077;28;26011;-70
2023/07/07 12:02:23;;;;;;;5.45;1.20;;;;;;;26.74;28.79;100781.03;4256052;28;20235;-69
2023/07/07 12:04:52;;;;;;;2.07;1.27;;;;;;;26.91;28.27;100791.41;4245454;28;20235;-71
2023/07/07 12:07:31;;;;;;;4.50;1.95;;;;;;;26.60;28.88;100789.91;4263005;28;20246;-70
2023/07/07 12:10:01;;;;;;;4.85;1.83;;;;;;;26.01;29.69;100782.53;4256843;28;20298;-69
2023/07/07 12:12:39;;;;;;;3.43;1.63;;;;;;;25.95;30.05;100776.84;4261139;28;20238;-68
2023/07/07 12:15:25;;;;;;;1.80;1.20;;;;;;;26.05;30.16;100776.25;4246553;28;20239;-70
2023/07/07 12:18:02;;;;;;;2.50;1.48;;;;;;;26.49;28.72;100784.16;4263639;28;22653;-69
2023/07/07 12:20:36;;;;;;;5.60;1.37;;;;;;;26.47;28.21;100768.81;4266320;28;20689;-66
2023/07/07 12:23:04;;;;;;;4.13;1.53;;;;;;;26.79;27.79;100774.78;4278035;28;20245;-66
2023/07/07 12:25:32;;;;;;;5.45;1.33;;;;;;;27.25;27.80;100782.28;4285148;28;20229;-69
2023/07/07 12:27:59;;;;;;;6.03;1.50;;;;;;;27.30;27.44;100774.91;4255718;28;21646;-72
2023/07/07 12:30:28;;;;;;;3.05;1.42;;;;;;;27.48;26.68;100767.44;4273385;28;20311;-69
2023/07/07 12:32:55;;;;;;;3.83;1.30;;;;;;;26.72;26.27;100766.59;4235080;28;23364;-69
2023/07/07 12:35:36;;;;;;;3.40;2.17;;;;;;;27.10;27.16;100774.53;4245536;28;22805;-70
2023/07/07 12:38:38;;;;;;;2.95;1.25;;;;;;;26.68;27.19;100773.69;4250362;28;20705;-68
2023/07/07 12:41:15;;;;;;;3.72;1.33;;;;;;;26.79;27.11;100766.44;4225934;28;20234;-66
2023/07/07 12:43:44;;;;;;;4.60;1.48;;;;;;;26.64;28.07;100757.78;4259709;28;20349;-56
2023/07/07 12:46:29;;;;;;;4.63;1.40;;;;;;;26.95;27.79;100761.19;4259462;28;21748;-72
2023/07/07 12:48:58;;;;;;;3.63;1.23;;;;;;;27.22;26.41;100764.19;4247006;28;20720;-71
2023/07/07 12:51:29;;;;;;;4.72;1.23;;;;;;;27.04;26.56;100768.88;4229296;28;20225;-69
2023/07/07 12:53:56;;;;;;;4.97;1.52;;;;;;;26.94;25.79;100773.38;4262188;28;20230;-70
2023/07/07 12:56:25;;;;;;;2.13;1.15;;;;;;;26.99;25.84;100779.91;4247166;28;21498;-72
2023/07/07 12:58:53;;;;;;;3.17;1.30;;;;;;;26.82;25.85;100770.66;4254901;28;20343;-69
2023/07/07 13:01:32;;;;;;;2.20;1.30;;;;;;;27.13;24.47;100765.69;4247011;28;20289;-71
2023/07/07 13:04:05;;;;;;;3.20;1.45;;;;;;;27.41;25.26;100759.22;4252805;28;21768;-71
2023/07/07 13:06:31;;;;;;;2.47;1.10;;;;;;;27.28;24.19;100768.72;4267733;28;21031;-72
2023/07/07 13:09:23;;;;;;;2.40;1.05;;;;;;;26.96;25.75;100760.09;4240809;28;20505;-71
2023/07/07 13:11:51;;;;;;;2.38;1.40;;;;;;;27.32;25.08;100752.41;4253007;28;20238;-73
2023/07/07 13:14:36;;;;;;;3.20;1.17;;;;;;;27.02;25.17;100761.88;4249912;28;20247;-72
2023/07/07 13:17:08;;;;;;;3.20;1.67;;;;;;;27.59;24.55;100752.59;4257818;28;20229;-70
2023/07/07 13:19:35;;;;;;;3.08;1.40;;;;;;;27.12;25.36;100752.88;4263444;28;21588;-69
2023/07/07 13:22:38;;;;;;;2.97;1.23;;;;;;;27.25;24.36;100752.56;4251818;28;20234;-70
2023/07/07 13:25:08;;;;;;;2.28;1.20;;;;;;;27.36;24.50;100765.53;4252727;28;21699;-70
2023/07/07 13:27:35;;;;;;;2.20;1.30;;;;;;;27.48;25.04;100768.28;4243358;28;21130;-68
2023/07/07 13:30:18;;;;;;;1.80;1.10;;;;;;;27.37;23.86;100769.19;4256903;28;20271;-70
2023/07/07 13:32:46;;;;;;;3.63;1.30;;;;;;;27.34;24.01;100761.34;4238708;28;20231;-72
2023/07/07 13:35:12;;;;;;;1.70;1.00;;;;;;;27.25;24.48;100762.84;4232568;28;21714;-68
2023/07/07 13:37:39;;;;;;;2.97;1.42;;;;;;;27.54;24.09;100763.66;4249254;28;20881;-73
2023/07/07 13:40:09;;;;;;;3.42;1.50;;;;;;;27.71;24.36;100757.25;4243278;28;22087;-70
2023/07/07 13:42:36;;;;;;;3.22;1.50;;;;;;;27.63;25.37;100755.72;4255290;28;20438;-70
2023/07/07 13:45:08;;;;;;;5.53;1.30;;;;;;;27.70;25.22;100759.16;4252801;28;20273;-72
2023/07/07 13:47:40;;;;;;;4.00;1.40;;;;;;;27.78;24.46;100763.47;4233934;28;20233;-69
2023/07/07 13:50:12;;;;;;;3.70;1.30;;;;;;;28.12;24.31;100760.63;4247933;28;21799;-70
2023/07/07 13:52:42;;;;;;;2.35;1.20;;;;;;;28.28;23.20;100772.84;4257070;28;20238;-69
2023/07/07 13:55:13;;;;;;;4.30;1.10;;;;;;;27.95;23.53;100763.44;4257358;28;20565;-72
2023/07/07 13:57:40;;;;;;;3.35;1.58;;;;;;;28.47;23.58;100765.00;4253702;28;20563;-68
2023/07/07 14:00:14;;;;;;;2.40;1.30;;;;;;;28.29;24.28;100767.00;4257689;28;20283;-70
2023/07/07 14:02:42;;;;;;;3.47;1.27;;;;;;;27.92;23.75;100755.59;4263783;28;24976;-70
2023/07/07 14:05:14;;;;;;;4.70;1.70;;;;;;;28.04;24.14;100761.91;4241276;28;20237;-69
2023/07/07 14:07:41;;;;;;;4.13;1.23;;;;;;;28.39;23.77;100759.88;4247746;28;22156;-71
2023/07/07 14:10:27;;;;;;;2.00;1.25;;;;;;;28.25;24.08;100754.69;4254579;28;21839;-71
2023/07/07 14:13:05;;;;;;;2.70;1.30;;;;;;;28.62;24.19;100758.75;4246061;27;20831;-69
2023/07/07 14:15:38;;;;;;;3.42;1.08;;;;;;;28.88;23.52;100753.53;4213615;28;20294;-69
2023/07/07 14:18:09;;;;;;;3.10;1.40;;;;;;;28.61;23.93;100755.16;4232013;28;20236;-69
2023/07/07 14:20:43;;;;;;;2.60;1.50;;;;;;;28.28;23.97;100759.75;4234935;28;20608;-68
2023/07/07 14:23:15;;;;;;;2.38;1.10;;;;;;;29.03;23.36;100752.81;4216889;28;20361;-69
2023/07/07 14:25:44;;;;;;;5.38;1.30;;;;;;;29.02;22.86;100757.56;4216740;28;22258;-69
2023/07/07 14:28:21;;;;;;;4.43;1.30;;;;;;;29.50;22.91;100754.09;4223644;28;20634;-69
2023/07/07 14:30:50;;;;;;;2.85;1.40;;;;;;;28.96;23.55;100752.19;4231029;28;20251;-69
2023/07/07 14:33:26;;;;;;;2.35;1.40;;;;;;;29.22;22.72;100750.50;4213898;28;20228;-71
2023/07/07 14:35:57;;;;;;;2.38;1.20;;;;;;;29.32;22.42;100742.25;4229681;28;20447;-69
2023/07/07 14:38:31;;;;;;;2.58;1.42;;;;;;;28.67;24.10;100753.25;4235620;28;20224;-67
2023/07/07 14:40:59;;;;;;;3.45;1.33;;;;;;;28.72;23.79;100745.00;4222102;28;20303;-68
2023/07/07 14:43:29;;;;;;;1.70;1.33;;;;;;;29.23;23.35;100754.97;4223512;28;20240;-70
2023/07/07 14:45:59;;;;;;;2.55;1.30;;;;;;;29.11;22.66;100751.50;4192589;28;20228;-69
2023/07/07 14:48:27;;;;;;;4.50;1.58;;;;;;;29.15;22.77;100747.09;4228019;28;20241;-69
2023/07/07 14:51:05;;;;;;;2.53;1.20;;;;;;;28.75;23.61;100747.25;4223559;28;20631;-69
2023/07/07 14:53:32;;;;;;;5.55;1.40;;;;;;;28.73;23.55;100752.25;4220785;28;20325;-70
2023/07/07 14:55:58;;;;;;;2.80;1.38;;;;;;;28.27;23.97;100746.91;4214863;28;20298;-67
2023/07/07 14:58:25;;;;;;;3.47;1.40;;;;;;;28.07;24.01;100741.94;4210255;28;20352;-66
2023/07/07 15:01:04;;;;;;;2.60;1.20;;;;;;;28.26;23.88;100745.25;4198622;28;21092;-67
2023/07/07 15:03:38;;;;;;;5.35;1.50;;;;;;;27.92;24.66;100734.19;4211522;28;20395;-70
2023/07/07 15:06:04;;;;;;;5.13;1.60;;;;;;;28.06;24.91;100740.22;4226339;28;20226;-67
2023/07/07 15:08:32;;;;;;;4.85;1.30;;;;;;;28.63;23.83;100741.78;4208263;28;20282;-71
2023/07/07 15:11:04;;;;;;;1.85;1.20;;;;;;;28.21;23.70;100738.78;4207393;28;24691;-69
2023/07/07 15:13:31;;;;;;;3.40;1.58;;;;;;;28.13;24.39;100728.94;4222000;28;21154;-71
2023/07/07 15:16:01;;;;;;;3.97;1.30;;;;;;;28.27;24.00;100740.53;4204606;28;22494;-68
2023/07/07 15:18:28;;;;;;;1.90;1.00;;;;;;;28.48;24.09;100727.69;4196180;28;21703;-70
2023/07/07 15:20:55;;;;;;;5.25;1.40;;;;;;;28.52;24.72;100737.22;4207441;28;20402;-72
2023/07/07 15:23:22;;;;;;;2.92;1.27;;;;;;;28.12;24.77;100733.66;4225230;28;20614;-70
2023/07/07 15:25:48;;;;;;;3.10;1.30;;;;;;;27.89;25.24;100728.28;4195243;28;21292;-71
2023/07/07 15:28:17;;;;;;;6.93;1.33;;;;;;;28.38;24.74;100731.19;4207959;28;23254;-71
2023/07/07 15:30:44;;;;;;;4.97;1.45;;;;;;;28.68;24.16;100734.59;4217910;28;20605;-70
2023/07/07 15:33:13;;;;;;;5.03;1.30;;;;;;;28.70;23.74;100738.84;4212472;28;20236;-68
2023/07/07 15:35:39;;;;;;;3.35;1.30;;;;;;;28.53;24.02;100729.69;4195971;28;20257;-72
2023/07/07 15:38:41;;;;;;;3.28;1.20;;;;;;;27.60;24.92;100737.59;4202303;28;20225;-68
2023/07/07 15:41:12;;;;;;;7.30;1.55;;;;;;;28.44;24.62;100729.31;4209039;28;21771;-70
2023/07/07 15:43:41;;;;;;;3.42;1.00;;;;;;;28.77;24.24;100739.47;4211970;28;20258;-69
2023/07/07 15:46:11;;;;;;;3.45;1.20;;;;;;;28.94;23.92;100733.78;4196028;28;22978;-74
2023/07/07 15:48:38;;;;;;;2.67;1.30;;;;;;;28.71;23.93;100739.66;4228894;28;20292;-70
2023/07/07 15:51:05;;;;;;;4.20;1.30;;;;;;;28.09;24.50;100730.56;4208619;28;20229;-68
2023/07/07 15:53:31;;;;;;;2.47;1.27;;;;;;;28.43;24.47;100730.41;4168102;28;20553;-70
2023/07/07 15:55:59;;;;;;;4.40;1.48;;;;;;;28.74;23.48;100739.97;4206816;28;22468;-69
2023/07/07 15:58:25;;;;;;;2.00;1.13;;;;;;;28.43;24.12;100735.97;4243540;28;21704;-69
2023/07/07 16:00:53;;;;;;;4.03;1.23;;;;;;;28.61;24.56;100737.59;4196495;28;21022;-68
2023/07/07 16:03:21;;;;;;;6.30;1.67;;;;;;;28.26;25.33;100730.50;4181297;28;20868;-70
2023/07/07 16:05:48;;;;;;;2.42;1.30;;;;;;;28.69;24.67;100731.56;4213846;28;21102;-67
2023/07/07 16:08:14;;;;;;;3.55;1.33;;;;;;;28.40;24.46;100733.72;4198591;28;20833;-71
2023/07/07 16:10:43;;;;;;;1.70;1.25;;;;;;;28.74;24.67;100739.97;4195742;28;20879;-69
2023/07/07 16:13:09;;;;;;;5.75;2.00;;;;;;;28.80;24.19;100737.28;4181462;28;22229;-72
2023/07/07 16:15:36;;;;;;;2.33;1.27;;;;;;;28.54;24.18;100735.03;4198437;28;20244;-70
2023/07/07 16:18:03;;;;;;;4.80;1.40;;;;;;;28.29;24.18;100735.53;4199266;28;20380;-72
2023/07/07 16:20:31;;;;;;;5.28;1.55;;;;;;;28.36;25.01;100741.75;4191985;28;20244;-70
2023/07/07 16:22:57;;;;;;;4.68;1.33;;;;;;;28.26;24.59;100739.66;4204376;28;22458;-70
2023/07/07 16:25:26;;;;;;;5.50;1.67;;;;;;;28.14;24.96;100730.63;4190468;28;20247;-68
2023/07/07 16:27:53;;;;;;;4.88;1.40;;;;;;;27.65;26.09;100736.84;4195733;28;20687;-70
2023/07/07 16:30:32;;;;;;;2.47;1.40;;;;;;;28.01;25.48;100733.75;4187810;28;20280;-70
2023/07/07 16:32:58;;;;;;;2.83;1.70;;;;;;;27.95;25.43;100730.03;4179759;28;20244;-68
2023/07/07 16:35:26;;;;;;;4.40;1.83;;;;;;;28.13;24.88;100740.91;4194654;28;20233;-70
2023/07/07 16:37:52;;;;;;;3.28;1.50;;;;;;;28.24;25.48;100741.03;4200243;28;20222;-70
2023/07/07 16:40:23;;;;;;;3.10;1.30;;;;;;;28.04;25.60;100731.28;4175882;28;22179;-70
2023/07/07 16:42:50;;;;;;;4.72;1.33;;;;;;;28.10;25.01;100735.00;4182377;28;20723;-69
2023/07/07 16:45:17;;;;;;;4.43;2.38;;;;;;;28.24;25.00;100741.88;4185103;28;22914;-70
2023/07/07 16:47:45;;;;;;;6.20;1.63;;;;;;;28.02;25.93;100733.47;4227042;28;21156;-69
2023/07/07 16:50:20;;;;;;;7.32;1.50;;;;;;;27.89;26.00;100734.69;4193133;28;20233;-68
2023/07/07 16:52:48;;;;;;;3.70;1.88;;;;;;;28.06;26.05;100743.00;4177035;28;21713;-70
2023/07/07 16:55:15;;;;;;;6.40;1.67;;;;;;;28.15;25.38;100730.34;4183666;28;22653;-69
2023/07/07 16:57:41;;;;;;;2.70;1.60;;;;;;;28.12;25.54;100736.44;4187105;28;21771;-69
2023/07/07 17:00:16;;;;;;;3.40;1.50;;;;;;;28.21;25.53;100736.00;4172598;28;20649;-68
2023/07/07 17:02:43;;;;;;;4.25;1.85;;;;;;;28.30;26.28;100735.28;4183085;28;21141;-70
2023/07/07 17:05:12;;;;;;;4.85;1.50;;;;;;;27.77;26.12;100733.97;4190069;28;20411;-69
2023/07/07 17:07:39;;;;;;;2.42;1.20;;;;;;;28.07;26.07;100738.31;4191401;28;20296;-70
2023/07/07 17:10:30;;;;;;;6.10;1.70;;;;;;;28.00;26.00;100732.88;4172550;28;20233;-70
2023/07/07 17:12:58;;;;;;;5.93;2.00;;;;;;;27.74;26.90;100734.47;4180160;28;20251;-69
2023/07/07 17:15:24;;;;;;;3.17;2.20;;;;;;;27.74;26.97;100726.13;4178852;28;25180;-69
2023/07/07 17:17:51;;;;;;;4.82;1.90;;;;;;;27.60;26.63;100734.00;4193436;28;20237;-70
2023/07/07 17:20:25;;;;;;;7.07;1.90;;;;;;;27.17;27.51;100728.81;4190573;28;20338;-69
2023/07/07 17:22:53;;;;;;;5.63;1.92;;;;;;;27.51;27.25;100733.56;4187184;28;25807;-70
2023/07/07 17:25:20;;;;;;;2.75;1.73;;;;;;;27.70;26.76;100736.91;4192544;28;21159;-69
2023/07/07 17:27:48;;;;;;;2.78;1.40;;;;;;;27.88;26.65;100726.59;4187891;28;20243;-69
2023/07/07 17:30:22;;;;;;;6.78;1.58;;;;;;;27.54;26.94;100737.75;4183507;28;23314;-69
2023/07/07 17:32:50;;;;;;;2.08;1.45;;;;;;;27.85;26.47;100733.53;4165611;28;20247;-69
2023/07/07 17:35:18;;;;;;;3.78;2.10;;;;;;;27.88;26.94;100732.16;4189537;28;20286;-69
2023/07/07 17:37:46;;;;;;;6.03;2.33;;;;;;;27.84;26.53;100734.63;4174214;28;21857;-69
2023/07/07 17:40:24;;;;;;;4.45;2.67;;;;;;;27.71;27.29;100735.81;4181961;28;20241;-70
2023/07/07 17:42:51;;;;;;;4.57;1.70;;;;;;;27.60;27.72;100742.34;4178994;28;20236;-68
2023/07/07 17:45:18;;;;;;;5.85;1.55;;;;;;;27.43;28.40;100742.31;4204656;28;20419;-71
2023/07/07 17:47:46;;;;;;;6.28;2.15;;;;;;;27.26;28.30;100734.81;4182057;28;20244;-68
2023/07/07 17:50:24;;;;;;;4.28;1.60;;;;;;;27.18;27.46;100741.63;4189334;28;25556;-68
2023/07/07 17:52:51;;;;;;;3.55;1.80;;;;;;;27.14;28.13;100739.59;4180985;28;21217;-72
2023/07/07 17:55:18;;;;;;;4.25;1.77;;;;;;;27.15;28.09;100744.06;4184936;28;22766;-70
2023/07/07 17:57:46;;;;;;;6.95;1.60;;;;;;;27.07;28.25;100742.53;4182357;28;20289;-70
2023/07/07 18:00:22;;;;;;;4.28;1.50;;;;;;;26.94;28.48;100745.59;4183493;28;20427;-69
2023/07/07 18:02:49;;;;;;;5.00;1.67;;;;;;;26.70;28.85;100746.53;4177767;28;20275;-67
2023/07/07 18:05:17;;;;;;;8.10;1.65;;;;;;;26.48;29.82;100742.75;4187166;28;20241;-67
2023/07/07 18:07:44;;;;;;;7.60;2.30;;;;;;;26.22;30.47;100740.31;4186499;28;20294;-68
2023/07/07 18:10:18;;;;;;;3.00;1.52;;;;;;;26.05;30.60;100742.09;4166646;28;21080;-68
2023/07/07 18:12:50;;;;;;;5.75;2.72;;;;;;;25.81;30.92;100742.13;4174745;28;20410;-67
2023/07/07 18:15:17;;;;;;;5.60;2.60;;;;;;;25.60;31.37;100740.81;4187683;28;23157;-71
2023/07/07 18:17:44;;;;;;;3.63;2.20;;;;;;;25.44;31.56;100745.13;4192379;28;20237;-68
2023/07/07 18:20:33;;;;;;;5.03;1.98;;;;;;;25.33;31.96;100746.75;4191481;28;20245;-66
2023/07/07 18:23:21;;;;;;;4.22;2.22;;;;;;;25.14;31.95;100740.44;4180691;28;22020;-67
2023/07/07 18:25:48;;;;;;;6.05;2.13;;;;;;;25.05;31.89;100753.81;4194938;28;20774;-69
2023/07/07 18:28:15;;;;;;;4.70;2.28;;;;;;;24.94;31.94;100752.69;4191848;28;20223;-67
2023/07/07 18:30:54;;;;;;;6.45;2.92;;;;;;;24.86;32.32;100761.31;4182540;28;20273;-69